Time;durP1;ratioP1;P1;durP2;ratioP2;P2;SDS_P1;SDS_P2;PMS_P1;PMS_P2;Temp;Humidity;BMP_temperature;BMP_pressure;BME280_temperature;BME280_humidity;BME280_pressure;Samples;Min_cycle;Max_cycle;Signal;HPM_P1;HPM_P2
2021/01/02 00:01:18;;;;;;;3.20;2.30;;;22.70;31.90;;;;;;5038707;28;20037;-53
2021/01/02 00:03:50;;;;;;;4.07;2.20;;;22.70;31.90;;;;;;5034582;28;20036;-53
2021/01/02 00:06:28;;;;;;;4.68;2.00;;;22.60;31.80;;;;;;5043579;28;20021;-53
2021/01/02 00:09:08;;;;;;;3.58;2.78;;;22.60;32.50;;;;;;5035284;28;20452;-51
2021/01/02 00:12:02;;;;;;;2.65;2.03;;;22.60;31.90;;;;;;5043889;28;20025;-50
2021/01/02 00:14:52;;;;;;;3.17;2.35;;;22.60;31.90;;;;;;5051849;28;20037;-51
2021/01/02 00:17:33;;;;;;;3.90;2.40;;;22.60;31.90;;;;;;5049911;28;20036;-53
2021/01/02 00:20:28;;;;;;;3.75;2.70;;;22.50;31.90;;;;;;5050645;28;20029;-52
2021/01/02 00:22:57;;;;;;;4.32;2.50;;;22.50;31.90;;;;;;5048937;28;20352;-55
2021/01/02 00:25:24;;;;;;;2.92;2.45;;;22.50;31.90;;;;;;5052396;28;20049;-56
2021/01/02 00:27:50;;;;;;;2.92;2.38;;;22.50;32.00;;;;;;5047674;28;20033;-52
2021/01/02 00:30:58;;;;;;;3.15;2.60;;;22.50;32.00;;;;;;5028392;28;20035;-53
2021/01/02 00:33:45;;;;;;;3.05;2.38;;;22.40;32.00;;;;;;5034151;28;20030;-51
2021/01/02 00:36:24;;;;;;;3.35;2.60;;;22.40;32.00;;;;;;5051145;28;20060;-53
2021/01/02 00:38:50;;;;;;;3.10;2.50;;;22.40;32.00;;;;;;5054204;28;20171;-52
2021/01/02 00:41:20;;;;;;;3.28;2.50;;;22.40;32.00;;;;;;5043123;28;20104;-50
2021/01/02 00:43:46;;;;;;;3.67;2.67;;;22.40;32.00;;;;;;5037345;28;20041;-50
2021/01/02 00:46:12;;;;;;;3.15;2.38;;;22.40;32.00;;;;;;5037815;28;20084;-51
2021/01/02 00:48:40;;;;;;;3.38;2.65;;;22.40;32.00;;;;;;5052948;28;20050;-51
2021/01/02 00:51:09;;;;;;;3.92;2.33;;;22.40;32.00;;;;;;5034409;28;20112;-52
2021/01/02 00:53:54;;;;;;;3.95;2.50;;;22.30;32.00;;;;;;5025278;28;20448;-50
2021/01/02 00:56:47;;;;;;;3.50;2.50;;;22.40;32.10;;;;;;5056193;28;20395;-53
2021/01/02 00:59:50;;;;;;;3.17;2.25;;;22.30;32.10;;;;;;5039545;28;20048;-54
2021/01/02 01:03:10;;;;;;;2.50;2.28;;;22.30;32.10;;;;;;5019873;28;20094;-47
2021/01/02 01:05:45;;;;;;;3.60;2.45;;;22.30;32.10;;;;;;4988702;28;20041;-49
2021/01/02 01:08:15;;;;;;;3.75;2.53;;;22.30;32.20;;;;;;5037532;28;20037;-55
2021/01/02 01:10:42;;;;;;;3.15;2.50;;;22.20;32.10;;;;;;5048602;28;20032;-51
2021/01/02 01:13:21;;;;;;;3.35;2.33;;;22.20;32.20;;;;;;5038876;28;20040;-51
2021/01/02 01:15:48;;;;;;;3.65;2.55;;;22.20;32.20;;;;;;5040424;28;20029;-54
2021/01/02 01:18:16;;;;;;;2.85;2.30;;;22.20;32.20;;;;;;5037658;28;20029;-53
2021/01/02 01:20:59;;;;;;;3.38;2.22;;;22.20;32.20;;;;;;5037943;28;20029;-51
2021/01/02 01:23:31;;;;;;;3.38;2.65;;;22.20;32.20;;;;;;5045062;28;20060;-51
2021/01/02 01:26:27;;;;;;;3.08;2.58;;;22.20;32.20;;;;;;5046731;28;20049;-51
2021/01/02 01:28:57;;;;;;;3.92;2.60;;;22.20;32.90;;;;;;5054822;28;20029;-51
2021/01/02 01:31:24;;;;;;;3.25;2.60;;;22.10;32.20;;;;;;5037380;28;20049;-55
2021/01/02 01:33:51;;;;;;;3.65;2.70;;;22.10;32.20;;;;;;5048079;28;20086;-53
2021/01/02 01:36:21;;;;;;;3.20;2.40;;;22.10;32.20;;;;;;5056642;28;20025;-55
2021/01/02 01:38:55;;;;;;;3.88;2.88;;;22.10;32.20;;;;;;5036189;28;20056;-51
2021/01/02 01:41:51;;;;;;;3.50;2.67;;;22.10;32.20;;;;;;5036990;28;20049;-55
2021/01/02 01:44:44;;;;;;;3.85;2.70;;;22.10;32.20;;;;;;5042229;28;20041;-53
2021/01/02 01:47:21;;;;;;;3.30;2.80;;;22.10;32.20;;;;;;5037223;28;20040;-52
2021/01/02 01:50:10;;;;;;;3.45;2.65;;;22.10;32.20;;;;;;5049511;28;20036;-56
2021/01/02 01:53:15;;;;;;;3.05;2.20;;;22.10;32.20;;;;;;5038791;28;20407;-54
2021/01/02 01:56:00;;;;;;;3.10;2.60;;;22.00;32.30;;;;;;5025830;28;20037;-55
2021/01/02 01:58:54;;;;;;;2.80;2.40;;;22.00;32.30;;;;;;5053602;28;20415;-52
2021/01/02 02:01:24;;;;;;;2.80;2.50;;;22.00;32.30;;;;;;5049850;28;20444;-53
2021/01/02 02:04:25;;;;;;;3.33;2.47;;;22.00;32.30;;;;;;5036678;28;20037;-55
2021/01/02 02:07:01;;;;;;;3.58;3.05;;;22.00;32.30;;;;;;5053464;28;20041;-56
2021/01/02 02:09:58;;;;;;;4.00;2.97;;;22.00;32.30;;;;;;5044928;28;20021;-53
2021/01/02 02:12:34;;;;;;;3.35;2.47;;;21.90;32.20;;;;;;5046815;28;20349;-56
2021/01/02 02:14:59;;;;;;;3.35;2.42;;;22.00;32.30;;;;;;5054782;28;20025;-52
2021/01/02 02:17:27;;;;;;;5.38;2.50;;;21.90;32.30;;;;;;5036992;28;20036;-55
2021/01/02 02:20:14;;;;;;;3.30;2.70;;;21.90;32.30;;;;;;5044518;28;20033;-55
2021/01/02 02:22:41;;;;;;;3.08;2.72;;;21.90;32.30;;;;;;5051269;28;20041;-57
2021/01/02 02:25:12;;;;;;;3.47;2.60;;;21.90;32.30;;;;;;5053781;28;20132;-52
2021/01/02 02:27:41;;;;;;;4.80;2.58;;;21.90;32.30;;;;;;5055191;28;20086;-53
2021/01/02 02:30:09;;;;;;;3.80;2.67;;;21.90;32.30;;;;;;5046768;28;20095;-55
2021/01/02 02:32:47;;;;;;;3.30;2.85;;;21.90;32.30;;;;;;5036038;28;20037;-52
2021/01/02 02:35:17;;;;;;;3.58;2.83;;;21.90;33.00;;;;;;5040983;28;20033;-55
2021/01/02 02:37:52;;;;;;;4.45;2.60;;;21.90;32.40;;;;;;5035979;28;20030;-53
2021/01/02 02:40:20;;;;;;;3.63;2.88;;;21.90;32.30;;;;;;5043046;28;20061;-56
2021/01/02 02:43:07;;;;;;;3.38;2.72;;;21.90;32.30;;;;;;5051862;28;20124;-53
2021/01/02 02:45:34;;;;;;;3.25;2.90;;;21.80;32.30;;;;;;5036770;28;20330;-56
2021/01/02 02:48:04;;;;;;;3.33;2.60;;;21.80;32.30;;;;;;5053822;28;20098;-50
2021/01/02 02:50:31;;;;;;;4.65;3.10;;;21.80;32.20;;;;;;5051081;28;20112;-54
2021/01/02 02:53:03;;;;;;;3.58;2.72;;;21.80;32.30;;;;;;5055292;28;20090;-53
2021/01/02 02:55:29;;;;;;;2.92;2.58;;;21.80;32.30;;;;;;5050545;28;20032;-53
2021/01/02 02:57:55;;;;;;;3.55;2.72;;;21.80;32.30;;;;;;5055248;28;20032;-55
2021/01/02 03:00:21;;;;;;;2.83;2.42;;;21.70;32.30;;;;;;5054466;28;20033;-53
2021/01/02 03:02:48;;;;;;;3.63;2.83;;;21.80;32.40;;;;;;5040091;28;20056;-51
2021/01/02 03:05:16;;;;;;;3.50;2.90;;;21.70;32.30;;;;;;5042614;28;20039;-56
2021/01/02 03:07:47;;;;;;;3.60;2.53;;;21.70;32.20;;;;;;5044315;28;20071;-54
2021/01/02 03:10:16;;;;;;;3.05;2.45;;;21.80;32.30;;;;;;5046679;28;20040;-54
2021/01/02 03:12:43;;;;;;;3.03;2.63;;;21.70;32.30;;;;;;5052987;28;20344;-52
2021/01/02 03:15:11;;;;;;;3.83;2.75;;;21.70;32.30;;;;;;5054988;28;20033;-55
2021/01/02 03:17:37;;;;;;;3.50;2.95;;;21.70;32.30;;;;;;5039353;28;20037;-51
2021/01/02 03:20:04;;;;;;;2.90;2.38;;;21.70;32.40;;;;;;5038859;28;20382;-55
2021/01/02 03:22:29;;;;;;;3.97;2.70;;;21.70;32.40;;;;;;5050412;28;20049;-52
2021/01/02 03:24:55;;;;;;;3.33;2.40;;;21.70;32.40;;;;;;5042928;28;20106;-55
2021/01/02 03:27:21;;;;;;;3.20;2.60;;;21.70;32.40;;;;;;5036141;28;20108;-54
2021/01/02 03:29:48;;;;;;;3.00;2.45;;;21.70;32.50;;;;;;5049942;28;20051;-55
2021/01/02 03:32:13;;;;;;;2.47;2.28;;;21.60;32.50;;;;;;5054562;28;20044;-55
2021/01/02 03:34:40;;;;;;;3.28;2.40;;;21.60;32.50;;;;;;5049909;28;20433;-56
2021/01/02 03:37:07;;;;;;;2.33;2.08;;;21.70;32.50;;;;;;5054822;28;20068;-55
2021/01/02 03:39:33;;;;;;;3.10;2.28;;;21.60;32.50;;;;;;5034388;28;20033;-55
2021/01/02 03:41:59;;;;;;;2.70;2.22;;;21.60;32.50;;;;;;5037706;28;20092;-54
2021/01/02 03:44:25;;;;;;;3.88;2.22;;;21.60;32.50;;;;;;5043673;28;20115;-53
2021/01/02 03:46:50;;;;;;;3.00;2.33;;;21.60;32.50;;;;;;5054588;28;20029;-54
2021/01/02 03:49:16;;;;;;;2.72;2.30;;;21.60;32.50;;;;;;5052154;28;20059;-51
2021/01/02 03:51:42;;;;;;;3.00;2.38;;;21.60;32.50;;;;;;5054517;28;20036;-51
2021/01/02 03:54:08;;;;;;;2.80;2.35;;;21.60;32.50;;;;;;5048272;28;20022;-50
2021/01/02 03:56:33;;;;;;;3.83;2.88;;;21.50;32.40;;;;;;5052125;28;20462;-53
2021/01/02 03:58:59;;;;;;;3.00;2.47;;;21.60;32.50;;;;;;5043582;28;20071;-52
2021/01/02 04:01:25;;;;;;;3.30;2.63;;;21.50;32.40;;;;;;5034568;28;20094;-54
2021/01/02 04:03:51;;;;;;;3.17;2.45;;;21.60;32.50;;;;;;5024494;28;20017;-54
2021/01/02 04:06:24;;;;;;;3.63;2.70;;;21.50;32.40;;;;;;5036177;28;20488;-58
2021/01/02 04:08:50;;;;;;;3.40;2.60;;;21.50;32.40;;;;;;5045296;28;20437;-53
2021/01/02 04:11:16;;;;;;;3.08;2.53;;;21.50;32.40;;;;;;5048578;28;20044;-53
2021/01/02 04:13:42;;;;;;;3.00;2.60;;;21.50;32.40;;;;;;5047806;28;20084;-54
2021/01/02 04:16:07;;;;;;;3.38;2.80;;;21.50;32.40;;;;;;5044393;28;20033;-54
2021/01/02 04:18:34;;;;;;;2.75;2.40;;;21.50;32.40;;;;;;5048303;28;20353;-52
2021/01/02 04:21:00;;;;;;;2.53;2.13;;;21.50;32.40;;;;;;5038613;28;20033;-54
2021/01/02 04:23:26;;;;;;;3.25;2.58;;;21.50;32.40;;;;;;5043934;28;20455;-53
2021/01/02 04:25:52;;;;;;;2.78;2.53;;;21.50;32.40;;;;;;5057982;28;20076;-52
2021/01/02 04:28:17;;;;;;;3.15;2.65;;;21.50;32.40;;;;;;5057769;28;20056;-51
2021/01/02 04:30:43;;;;;;;3.15;2.80;;;21.50;32.40;;;;;;5057575;28;20348;-56
2021/01/02 04:33:10;;;;;;;2.88;2.50;;;21.50;32.40;;;;;;5057210;28;20467;-54
2021/01/02 04:35:36;;;;;;;5.22;2.83;;;21.40;32.40;;;;;;5057946;28;20059;-54
2021/01/02 04:38:03;;;;;;;2.65;2.45;;;21.40;32.40;;;;;;5052339;28;20033;-53
2021/01/02 04:40:29;;;;;;;3.65;2.95;;;21.40;32.40;;;;;;5039447;28;20025;-56
2021/01/02 04:42:55;;;;;;;2.75;2.47;;;21.40;32.40;;;;;;5038788;28;20048;-51
2021/01/02 04:45:23;;;;;;;3.63;2.85;;;21.50;32.40;;;;;;5057205;28;20099;-53
2021/01/02 04:47:49;;;;;;;3.30;2.53;;;21.40;32.40;;;;;;5046113;28;20332;-54
2021/01/02 04:50:15;;;;;;;3.47;2.85;;;21.40;32.40;;;;;;5057691;28;20048;-52
2021/01/02 04:52:42;;;;;;;3.45;2.67;;;21.40;32.40;;;;;;5051456;28;20029;-52
2021/01/02 04:55:09;;;;;;;2.95;2.45;;;21.40;32.40;;;;;;5043087;28;20088;-54
2021/01/02 04:57:36;;;;;;;4.22;3.08;;;21.40;32.40;;;;;;5037797;28;20088;-54
2021/01/02 05:00:06;;;;;;;3.53;2.83;;;21.40;32.40;;;;;;5046270;28;20447;-53
2021/01/02 05:02:33;;;;;;;3.25;2.83;;;21.40;32.40;;;;;;5037630;28;20131;-54
2021/01/02 05:04:59;;;;;;;3.42;2.80;;;21.30;32.30;;;;;;5041756;28;20029;-51
2021/01/02 05:07:30;;;;;;;3.05;2.70;;;21.30;32.30;;;;;;5043009;28;20076;-52
2021/01/02 05:09:59;;;;;;;3.95;3.00;;;21.30;32.30;;;;;;5057211;28;20115;-53
2021/01/02 05:12:33;;;;;;;3.47;2.72;;;21.30;32.30;;;;;;5052876;28;20223;-56
2021/01/02 05:15:03;;;;;;;3.17;2.80;;;21.30;32.30;;;;;;5042088;28;20029;-55
2021/01/02 05:17:29;;;;;;;3.40;2.80;;;21.30;32.30;;;;;;5054989;28;20224;-48
2021/01/02 05:20:15;;;;;;;2.97;2.50;;;21.30;32.30;;;;;;5051346;28;20036;-53
2021/01/02 05:22:43;;;;;;;3.47;2.95;;;21.30;32.30;;;;;;5051075;28;20065;-53
2021/01/02 05:25:13;;;;;;;3.38;2.83;;;21.30;32.30;;;;;;5047135;28;20041;-53
2021/01/02 05:27:43;;;;;;;4.35;3.03;;;21.30;32.30;;;;;;5039820;28;20037;-55
2021/01/02 05:30:25;;;;;;;3.65;3.25;;;21.30;32.30;;;;;;5051284;28;20044;-52
2021/01/02 05:33:07;;;;;;;3.85;3.15;;;21.30;32.30;;;;;;5052356;28;20029;-54
2021/01/02 05:35:43;;;;;;;3.70;3.10;;;21.30;32.30;;;;;;5054061;28;20040;-53
2021/01/02 05:38:24;;;;;;;3.78;3.20;;;21.30;32.30;;;;;;5027258;28;20040;-53
2021/01/02 05:40:58;;;;;;;3.25;2.95;;;21.20;32.20;;;;;;5056455;28;20029;-54
2021/01/02 05:43:25;;;;;;;;;;;21.20;32.20;;;;;;5053878;28;20407;-52
2021/01/02 05:45:51;;;;;;;4.07;3.20;;;21.20;32.20;;;;;;5056336;28;19974;-52
2021/01/02 05:48:20;;;;;;;3.70;3.13;;;21.20;32.20;;;;;;5049856;28;20030;-51
2021/01/02 05:50:48;;;;;;;3.70;3.22;;;21.20;32.30;;;;;;5040436;28;20059;-56
2021/01/02 05:53:25;;;;;;;3.85;3.45;;;21.20;32.20;;;;;;5052063;28;20337;-50
2021/01/02 05:56:09;;;;;;;4.57;3.70;;;21.20;32.20;;;;;;5038439;28;20030;-55
2021/01/02 05:58:39;;;;;;;4.75;4.07;;;21.20;32.30;;;;;;5038154;28;20044;-53
2021/01/02 06:01:13;;;;;;;3.97;3.47;;;21.20;32.20;;;;;;5052266;28;20108;-53
2021/01/02 06:03:41;;;;;;;4.20;3.47;;;21.20;32.30;;;;;;5020360;28;20049;-55
2021/01/02 06:06:09;;;;;;;3.83;3.40;;;21.20;32.30;;;;;;5056314;28;20060;-52
2021/01/02 06:08:41;;;;;;;4.05;3.55;;;21.20;32.20;;;;;;5047776;28;20102;-52
2021/01/02 06:11:13;;;;;;;3.60;3.25;;;21.10;32.20;;;;;;5054295;28;20033;-53
2021/01/02 06:13:50;;;;;;;4.57;3.78;;;21.20;32.20;;;;;;5054572;28;20032;-50
2021/01/02 06:16:16;;;;;;;4.20;3.75;;;21.10;32.20;;;;;;5050012;28;20036;-52
2021/01/02 06:18:44;;;;;;;5.22;4.18;;;21.10;32.20;;;;;;5047790;28;20040;-55
2021/01/02 06:21:12;;;;;;;5.65;4.00;;;21.10;32.20;;;;;;5036493;28;20322;-53
2021/01/02 06:23:40;;;;;;;5.00;4.00;;;21.10;32.10;;;;;;5045329;28;20068;-49
2021/01/02 06:26:08;;;;;;;3.97;3.42;;;21.10;32.20;;;;;;5036109;28;20408;-52
2021/01/02 06:28:36;;;;;;;4.40;3.90;;;21.10;32.20;;;;;;5051080;28;20028;-50
2021/01/02 06:31:04;;;;;;;4.40;4.00;;;21.10;32.20;;;;;;5038192;28;20136;-53
2021/01/02 06:33:30;;;;;;;4.13;3.72;;;21.10;32.20;;;;;;5047810;28;20072;-50
2021/01/02 06:35:57;;;;;;;4.88;3.88;;;21.10;32.20;;;;;;5055458;28;20093;-52
2021/01/02 06:38:23;;;;;;;4.13;3.67;;;21.10;32.90;;;;;;5050067;28;20028;-51
2021/01/02 06:40:51;;;;;;;4.95;4.00;;;21.10;32.20;;;;;;5037257;28;20030;-49
2021/01/02 06:43:38;;;;;;;4.78;4.22;;;21.10;32.20;;;;;;5037218;28;20041;-54
2021/01/02 06:46:05;;;;;;;5.38;4.32;;;21.10;32.20;;;;;;5035818;28;20029;-51
2021/01/02 06:48:32;;;;;;;5.05;4.50;;;21.00;32.10;;;;;;5024434;28;20021;-52
2021/01/02 06:50:59;;;;;;;4.60;4.03;;;21.00;32.10;;;;;;5054603;28;20040;-53
2021/01/02 06:53:27;;;;;;;4.90;4.07;;;21.00;32.10;;;;;;5054554;28;20106;-50
2021/01/02 06:56:05;;;;;;;5.85;4.43;;;21.00;32.10;;;;;;5044990;28;20055;-54
2021/01/02 06:58:42;;;;;;;5.38;4.25;;;21.00;32.10;;;;;;5035516;28;20030;-52
2021/01/02 07:01:15;;;;;;;5.05;4.15;;;21.00;32.00;;;;;;5053829;28;20067;-51
2021/01/02 07:03:47;;;;;;;4.70;4.10;;;21.00;32.10;;;;;;5055111;28;20119;-54
2021/01/02 07:08:47;;;;;;;5.65;4.63;;;21.00;32.10;;;;;;5051818;28;20036;-51
2021/01/02 07:11:25;;;;;;;4.40;4.00;;;21.00;32.10;;;;;;5052439;28;20033;-49
2021/01/02 07:14:14;;;;;;;4.65;4.03;;;21.00;32.10;;;;;;5055090;28;20120;-52
2021/01/02 07:16:49;;;;;;;4.97;4.35;;;21.00;32.10;;;;;;5035232;28;20037;-52
2021/01/02 07:19:27;;;;;;;5.03;4.05;;;21.00;32.80;;;;;;5052036;28;20025;-51
2021/01/02 07:22:08;;;;;;;4.85;4.03;;;21.00;32.10;;;;;;5035216;28;20041;-50
2021/01/02 07:25:03;;;;;;;5.03;4.05;;;21.00;32.20;;;;;;5050675;28;20132;-51
2021/01/02 07:27:34;;;;;;;5.07;4.05;;;20.90;32.10;;;;;;5054625;28;20037;-54
2021/01/02 07:30:12;;;;;;;5.50;4.25;;;21.00;32.10;;;;;;5053701;28;20037;-54
2021/01/02 07:32:42;;;;;;;5.63;4.45;;;20.90;32.10;;;;;;5033777;28;20403;-56
2021/01/02 07:35:13;;;;;;;5.60;4.45;;;20.90;32.20;;;;;;5047745;28;20116;-54
2021/01/02 07:37:41;;;;;;;5.72;4.68;;;21.00;32.30;;;;;;5051548;28;20108;-53
2021/01/02 07:40:09;;;;;;;6.10;4.88;;;20.90;32.20;;;;;;5049574;28;20040;-47
2021/01/02 07:42:40;;;;;;;5.30;4.38;;;21.00;32.30;;;;;;5052678;28;20103;-51
2021/01/02 07:45:12;;;;;;;5.00;4.20;;;21.00;32.30;;;;;;5053233;28;20029;-51
2021/01/02 07:47:55;;;;;;;5.72;4.57;;;20.90;32.20;;;;;;5045333;28;20457;-55
2021/01/02 07:50:22;;;;;;;6.10;4.88;;;20.90;32.30;;;;;;5033937;28;20039;-49
2021/01/02 07:52:59;;;;;;;6.28;4.93;;;20.90;32.30;;;;;;5033611;28;20025;-54
2021/01/02 07:55:27;;;;;;;5.68;4.50;;;20.90;32.30;;;;;;5050060;28;20034;-53
2021/01/02 07:57:53;;;;;;;6.72;3.70;;;20.90;32.30;;;;;;5047242;28;20038;-53
2021/01/02 08:00:20;;;;;;;4.50;3.42;;;20.90;32.60;;;;;;5016746;28;20033;-55
2021/01/02 08:02:46;;;;;;;5.20;3.63;;;20.90;33.00;;;;;;5036960;28;20037;-55
2021/01/02 08:05:14;;;;;;;4.03;3.33;;;20.90;33.20;;;;;;5034236;28;20036;-55
2021/01/02 08:07:41;;;;;;;4.65;3.53;;;20.90;33.40;;;;;;5045333;28;20367;-54
2021/01/02 08:10:12;;;;;;;4.57;3.30;;;21.00;33.50;;;;;;5054090;28;20047;-54
2021/01/02 08:12:49;;;;;;;4.88;3.25;;;21.00;33.50;;;;;;5044699;28;20037;-56
2021/01/02 08:15:26;;;;;;;5.00;4.10;;;21.10;33.50;;;;;;5040205;28;20029;-54
2021/01/02 08:17:51;;;;;;;4.72;3.10;;;21.20;33.50;;;;;;5038475;28;20396;-53
2021/01/02 08:20:17;;;;;;;5.70;3.45;;;21.20;33.40;;;;;;5048553;28;20028;-56
2021/01/02 08:22:43;;;;;;;4.63;3.70;;;21.30;33.30;;;;;;5043224;28;20041;-55
2021/01/02 08:25:10;;;;;;;3.83;3.30;;;21.40;33.30;;;;;;5020189;28;20057;-52
2021/01/02 08:27:37;;;;;;;4.43;3.50;;;21.50;33.20;;;;;;5012657;28;20034;-54
2021/01/02 08:30:06;;;;;;;5.63;3.42;;;21.60;33.20;;;;;;5009005;28;20025;-56
2021/01/02 08:32:35;;;;;;;4.95;3.60;;;21.60;33.10;;;;;;5005213;28;20062;-55
2021/01/02 08:35:01;;;;;;;4.20;3.50;;;21.70;33.00;;;;;;5005313;28;20021;-55
2021/01/02 08:37:27;;;;;;;5.95;3.90;;;21.80;33.00;;;;;;5011703;28;20334;-57
2021/01/02 08:40:10;;;;;;;4.25;3.63;;;21.90;32.90;;;;;;5011655;28;20026;-61
2021/01/02 08:42:40;;;;;;;4.70;3.78;;;22.00;32.90;;;;;;5011975;28;20100;-59
2021/01/02 08:45:12;;;;;;;4.28;3.15;;;22.10;32.80;;;;;;5011898;28;20061;-56
2021/01/02 08:47:39;;;;;;;2.70;2.38;;;22.10;32.10;;;;;;5011560;28;20033;-52
2021/01/02 08:50:12;;;;;;;3.85;3.30;;;22.10;32.10;;;;;;5011954;28;20396;-59
2021/01/02 08:52:38;;;;;;;3.35;2.67;;;22.20;32.20;;;;;;5008868;28;20037;-53
2021/01/02 08:55:14;;;;;;;3.40;2.80;;;22.20;32.20;;;;;;5004563;28;20022;-52
2021/01/02 08:57:50;;;;;;;3.83;3.00;;;22.30;32.20;;;;;;5010450;28;20038;-54
2021/01/02 09:00:17;;;;;;;5.15;3.50;;;22.40;32.20;;;;;;5011787;28;20099;-53
2021/01/02 09:02:52;;;;;;;5.35;3.30;;;22.50;32.20;;;;;;5006328;28;20473;-52
2021/01/02 09:05:29;;;;;;;4.15;3.22;;;22.60;32.20;;;;;;5014380;28;20476;-52
2021/01/02 09:07:59;;;;;;;4.15;3.60;;;22.70;32.40;;;;;;5014189;28;20038;-58
2021/01/02 09:10:42;;;;;;;3.70;3.05;;;22.80;32.60;;;;;;5013260;28;20072;-54
2021/01/02 09:13:24;;;;;;;4.57;3.60;;;22.90;32.70;;;;;;5013746;28;20025;-52
2021/01/02 09:15:50;;;;;;;4.45;3.53;;;23.00;33.00;;;;;;5011863;28;20036;-50
2021/01/02 09:18:35;;;;;;;4.80;3.58;;;23.10;33.20;;;;;;5011691;28;20104;-49
2021/01/02 09:21:09;;;;;;;5.47;3.80;;;23.20;33.30;;;;;;5011657;28;20088;-54
2021/01/02 09:23:34;;;;;;;;;;;23.40;33.40;;;;;;5008453;28;20042;-54
2021/01/02 09:26:01;;;;;;;5.00;3.50;;;23.40;33.60;;;;;;5043639;28;19931;-51
2021/01/02 09:28:27;;;;;;;4.15;3.10;;;23.50;33.70;;;;;;5056811;28;20036;-51
2021/01/02 09:30:53;;;;;;;4.38;3.42;;;23.60;33.90;;;;;;5055612;28;20467;-53
2021/01/02 09:33:19;;;;;;;4.65;3.40;;;23.70;34.10;;;;;;5054979;28;20064;-52
2021/01/02 09:35:46;;;;;;;5.20;3.60;;;23.80;34.20;;;;;;5048678;28;20042;-53
2021/01/02 09:38:13;;;;;;;6.00;3.83;;;23.90;34.30;;;;;;5035217;28;20029;-54
2021/01/02 09:40:41;;;;;;;4.65;3.67;;;24.00;34.30;;;;;;5048047;28;20075;-55
2021/01/02 09:43:12;;;;;;;4.95;3.30;;;24.00;34.20;;;;;;5052470;28;20144;-49
2021/01/02 09:45:39;;;;;;;4.05;3.50;;;24.10;34.20;;;;;;5042962;28;20072;-54
2021/01/02 09:48:05;;;;;;;5.00;4.10;;;24.20;34.20;;;;;;5036958;28;20441;-54
2021/01/02 09:50:32;;;;;;;4.75;3.40;;;24.20;34.00;;;;;;5046933;28;20021;-51
2021/01/02 09:52:57;;;;;;;5.13;3.97;;;24.30;33.90;;;;;;5054888;28;20098;-43
2021/01/02 09:55:23;;;;;;;4.78;3.60;;;24.50;33.80;;;;;;5053381;28;20033;-50
2021/01/02 09:57:49;;;;;;;6.78;3.78;;;24.70;33.50;;;;;;5054793;28;20029;-54
2021/01/02 10:00:17;;;;;;;5.90;4.07;;;24.80;33.20;;;;;;5050318;28;20108;-50
2021/01/02 10:02:44;;;;;;;6.57;3.80;;;25.10;33.10;;;;;;5054729;28;20369;-62
2021/01/02 10:05:13;;;;;;;5.95;4.53;;;25.20;32.90;;;;;;5045034;28;20025;-56
2021/01/02 10:07:38;;;;;;;7.78;4.75;;;25.40;32.90;;;;;;5052572;28;20028;-59
2021/01/02 10:10:05;;;;;;;5.35;4.15;;;25.60;32.70;;;;;;5055888;28;20444;-55
2021/01/02 10:12:31;;;;;;;5.55;4.15;;;25.80;32.40;;;;;;5050195;28;20036;-56
2021/01/02 10:14:57;;;;;;;5.72;4.05;;;25.90;32.10;;;;;;5045491;28;20029;-52
2021/01/02 10:17:27;;;;;;;7.97;4.03;;;26.10;31.90;;;;;;5050729;28;20448;-46
2021/01/02 10:19:54;;;;;;;6.03;4.25;;;26.10;31.60;;;;;;5053496;28;20029;-57
2021/01/02 10:22:20;;;;;;;6.45;4.75;;;26.20;31.40;;;;;;5052708;28;20041;-54
2021/01/02 10:24:47;;;;;;;6.90;4.45;;;26.30;31.10;;;;;;5053337;28;20111;-57
2021/01/02 10:27:13;;;;;;;10.23;5.38;;;26.30;30.90;;;;;;5053512;28;20107;-54
2021/01/02 10:29:46;;;;;;;8.45;4.70;;;26.40;30.70;;;;;;5053137;28;20543;-53
2021/01/02 10:32:14;;;;;;;6.50;5.32;;;26.40;30.40;;;;;;5047986;28;20497;-50
2021/01/02 10:34:41;;;;;;;6.93;4.80;;;26.50;30.30;;;;;;5054571;28;20120;-51
2021/01/02 10:37:08;;;;;;;7.75;4.80;;;26.50;30.10;;;;;;5041905;28;20033;-50
2021/01/02 10:39:37;;;;;;;6.75;5.28;;;26.50;30.00;;;;;;5047005;28;20312;-53
2021/01/02 10:42:03;;;;;;;6.63;5.00;;;26.60;29.90;;;;;;5054333;28;20076;-54
2021/01/02 10:44:29;;;;;;;6.72;4.78;;;26.60;29.80;;;;;;5056231;28;20036;-55
2021/01/02 10:46:55;;;;;;;6.75;4.70;;;26.60;29.60;;;;;;5048879;28;20033;-55
2021/01/02 10:49:22;;;;;;;6.20;4.95;;;26.70;29.60;;;;;;5031579;28;20349;-59
2021/01/02 10:51:49;;;;;;;7.15;4.85;;;26.70;29.50;;;;;;5045043;28;20037;-50
2021/01/02 10:54:16;;;;;;;5.88;4.50;;;26.70;29.40;;;;;;5050318;28;20052;-53
2021/01/02 10:56:51;;;;;;;5.78;5.03;;;26.80;29.40;;;;;;5035613;28;20033;-51
2021/01/02 10:59:19;;;;;;;6.97;5.13;;;26.80;29.30;;;;;;5019004;28;20029;-54
2021/01/02 11:01:47;;;;;;;8.02;5.40;;;26.80;29.30;;;;;;5036235;28;20037;-49
2021/01/02 11:04:14;;;;;;;6.63;5.22;;;26.80;29.20;;;;;;5039206;28;20032;-46
2021/01/02 11:06:42;;;;;;;6.80;4.90;;;26.80;29.20;;;;;;5045424;28;20026;-48
2021/01/02 11:09:09;;;;;;;6.40;5.22;;;26.70;28.50;;;;;;5020570;28;20440;-49
2021/01/02 11:11:42;;;;;;;6.20;4.82;;;26.60;28.60;;;;;;5043990;28;20503;-47
2021/01/02 11:14:10;;;;;;;5.95;4.97;;;26.40;28.70;;;;;;5047813;28;20033;-53
2021/01/02 11:16:42;;;;;;;6.15;5.00;;;26.20;28.70;;;;;;5045261;28;20029;-50
2021/01/02 11:19:11;;;;;;;9.73;5.07;;;26.10;28.80;;;;;;5044874;28;20040;-45
2021/01/02 11:21:38;;;;;;;5.37;4.40;;;25.90;28.80;;;;;;5044682;28;20336;-47
2021/01/02 11:24:04;;;;;;;6.10;4.70;;;25.80;29.10;;;;;;5039185;28;20284;-48
2021/01/02 11:26:30;;;;;;;5.75;4.68;;;25.70;29.30;;;;;;5051062;28;20056;-46
2021/01/02 11:28:56;;;;;;;6.80;4.50;;;25.60;29.50;;;;;;5045599;28;20360;-44
2021/01/02 11:31:36;;;;;;;6.47;5.00;;;25.60;29.70;;;;;;5049808;28;20041;-50
2021/01/02 11:34:02;;;;;;;5.40;4.22;;;25.50;29.80;;;;;;5046156;28;20039;-46
2021/01/02 11:36:28;;;;;;;6.25;4.85;;;25.40;29.80;;;;;;5038751;28;20314;-49
2021/01/02 11:38:54;;;;;;;7.10;4.85;;;25.40;29.90;;;;;;5041472;28;20028;-52
2021/01/02 11:41:28;;;;;;;6.13;4.72;;;25.30;29.90;;;;;;5044838;28;20017;-48
2021/01/02 11:43:54;;;;;;;7.90;5.90;;;25.30;30.00;;;;;;5045207;28;20045;-48
2021/01/02 11:46:36;;;;;;;6.97;6.05;;;25.30;29.80;;;;;;5043199;28;20485;-52
2021/01/02 11:49:06;;;;;;;6.40;5.30;;;25.20;29.50;;;;;;5035810;28;20071;-50
2021/01/02 11:51:32;;;;;;;7.60;6.45;;;25.20;29.60;;;;;;5046220;28;20087;-47
2021/01/02 11:53:58;;;;;;;8.00;6.70;;;25.20;29.60;;;;;;5039627;28;20022;-46
2021/01/02 11:56:25;;;;;;;7.72;6.22;;;25.10;29.60;;;;;;5037928;28;20022;-51
2021/01/02 11:58:55;;;;;;;9.45;7.03;;;25.10;29.60;;;;;;5044281;28;20041;-48
2021/01/02 12:01:22;;;;;;;9.13;7.43;;;25.00;29.50;;;;;;5039053;28;20448;-47
2021/01/02 12:03:50;;;;;;;10.35;7.53;;;25.00;29.70;;;;;;5037911;28;20033;-46
2021/01/02 12:06:17;;;;;;;8.82;7.35;;;25.00;29.70;;;;;;5027088;28;20026;-55
2021/01/02 12:08:43;;;;;;;8.85;6.93;;;25.00;29.70;;;;;;5042608;28;20444;-52
2021/01/02 12:11:08;;;;;;;9.98;6.68;;;25.00;29.90;;;;;;5045857;28;20036;-46
2021/01/02 12:13:40;;;;;;;6.55;5.72;;;24.90;29.80;;;;;;5050206;28;20033;-42
2021/01/02 12:16:07;;;;;;;7.38;6.03;;;24.90;29.90;;;;;;5045767;28;20029;-47
2021/01/02 12:18:34;;;;;;;6.65;5.40;;;24.90;29.90;;;;;;5042076;28;20033;-45
2021/01/02 12:21:00;;;;;;;7.25;6.07;;;24.90;29.90;;;;;;5050924;28;20416;-44
2021/01/02 12:23:26;;;;;;;7.18;6.15;;;24.90;29.90;;;;;;5026604;28;20368;-46
2021/01/02 12:25:53;;;;;;;8.30;6.32;;;24.80;29.90;;;;;;5041906;28;20057;-45
2021/01/02 12:28:19;;;;;;;6.88;5.93;;;24.80;29.90;;;;;;5035560;28;20332;-44
2021/01/02 12:30:45;;;;;;;5.32;4.45;;;24.80;29.90;;;;;;5038312;28;20034;-45
2021/01/02 12:33:11;;;;;;;7.63;4.65;;;24.70;29.50;;;;;;5015706;28;20033;-52
2021/01/02 12:35:37;;;;;;;5.05;4.35;;;24.70;30.10;;;;;;5022492;28;20124;-45
2021/01/02 12:38:02;;;;;;;5.45;4.63;;;24.70;30.50;;;;;;5044077;28;20040;-48
2021/01/02 12:40:28;;;;;;;8.25;5.75;;;24.70;30.50;;;;;;5042263;28;20029;-46
2021/01/02 12:42:55;;;;;;;7.28;6.57;;;24.70;30.30;;;;;;5037314;28;20448;-45
2021/01/02 12:45:21;;;;;;;7.97;6.50;;;24.70;30.00;;;;;;5049978;28;20078;-45
2021/01/02 12:47:54;;;;;;;9.88;5.57;;;24.70;30.00;;;;;;5048174;28;20021;-45
2021/01/02 12:50:21;;;;;;;6.45;5.80;;;24.70;30.00;;;;;;5049810;28;20079;-44
2021/01/02 12:52:46;;;;;;;8.10;5.30;;;24.70;29.90;;;;;;5047288;28;20032;-43
2021/01/02 12:55:12;;;;;;;7.68;5.95;;;24.60;29.90;;;;;;5047337;28;20574;-63
2021/01/02 12:57:40;;;;;;;7.32;6.05;;;24.60;30.00;;;;;;5053515;28;20040;-54
2021/01/02 13:00:07;;;;;;;8.07;5.88;;;24.60;30.20;;;;;;5043311;28;20075;-56
2021/01/02 13:05:15;;;;;;;8.27;6.20;;;24.60;30.80;;;;;;4979177;28;20378;-46
2021/01/02 13:07:41;;;;;;;7.00;5.60;;;24.60;30.60;;;;;;4994959;28;20117;-54
2021/01/02 13:10:08;;;;;;;9.13;6.53;;;24.60;30.60;;;;;;4991737;28;20027;-46
2021/01/02 13:12:34;;;;;;;6.70;5.85;;;24.60;30.70;;;;;;4981846;28;20504;-51